Time;durP1;ratioP1;P1;durP2;ratioP2;P2;SDS_P1;SDS_P2;PMS_P1;PMS_P2;Temp;Humidity;BMP_temperature;BMP_pressure;BME280_temperature;BME280_humidity;BME280_pressure;Samples;Min_cycle;Max_cycle;Signal;HPM_P1;HPM_P2
2023/07/07 00:02:17;;;;;;;3.42;1.85;;;17.90;91.90;;;;;;5035107;28;20186;-63
2023/07/07 00:04:48;;;;;;;2.47;1.75;;;17.90;92.50;;;;;;5052332;28;20202;-65
2023/07/07 00:07:14;;;;;;;2.40;1.75;;;17.80;92.70;;;;;;5042069;28;20174;-65
2023/07/07 00:09:42;;;;;;;2.67;1.80;;;17.80;92.70;;;;;;5035448;28;20292;-63
2023/07/07 00:12:08;;;;;;;2.35;1.67;;;17.70;93.00;;;;;;5035785;28;20174;-62
2023/07/07 00:14:34;;;;;;;3.58;1.80;;;17.70;92.90;;;;;;5034694;28;20243;-62
2023/07/07 00:17:02;;;;;;;2.83;1.83;;;17.70;93.10;;;;;;5047993;28;20228;-63
2023/07/07 00:19:33;;;;;;;3.00;2.10;;;17.70;93.30;;;;;;5036186;28;20189;-63
2023/07/07 00:22:01;;;;;;;2.97;1.95;;;17.60;94.00;;;;;;5034556;28;20178;-63
2023/07/07 00:24:27;;;;;;;3.08;1.80;;;17.60;94.00;;;;;;5034439;28;20409;-63
2023/07/07 00:26:58;;;;;;;2.10;1.70;;;17.60;93.70;;;;;;5034388;28;20213;-62
2023/07/07 00:29:28;;;;;;;2.92;1.80;;;17.50;94.20;;;;;;5032377;28;20201;-62
2023/07/07 00:31:53;;;;;;;3.70;2.00;;;17.50;94.40;;;;;;5038383;28;20198;-63
2023/07/07 00:34:19;;;;;;;3.65;1.80;;;17.50;94.30;;;;;;5032165;28;20206;-62
2023/07/07 00:36:45;;;;;;;2.97;1.88;;;17.50;94.40;;;;;;5034777;28;20202;-63
2023/07/07 00:39:13;;;;;;;2.78;1.65;;;17.40;94.60;;;;;;5037288;28;20229;-63
2023/07/07 00:41:39;;;;;;;2.42;1.70;;;17.40;94.80;;;;;;5041638;28;20203;-63
2023/07/07 00:44:10;;;;;;;2.42;1.60;;;17.30;94.90;;;;;;5035043;28;20324;-63
2023/07/07 00:46:37;;;;;;;2.58;1.70;;;17.30;95.80;;;;;;5034774;28;20198;-63
2023/07/07 00:49:08;;;;;;;2.88;1.70;;;17.20;95.70;;;;;;5032656;28;20210;-62
2023/07/07 00:51:50;;;;;;;2.85;1.65;;;17.20;95.80;;;;;;5018867;28;20169;-63
2023/07/07 00:54:23;;;;;;;2.33;1.85;;;17.20;96.10;;;;;;5038029;28;20174;-63
2023/07/07 00:56:52;;;;;;;2.40;1.85;;;17.10;96.50;;;;;;5026015;28;20174;-63
2023/07/07 00:59:38;;;;;;;3.40;2.10;;;17.10;96.30;;;;;;5040367;28;20193;-63
2023/07/07 01:02:12;;;;;;;3.67;1.77;;;17.00;97.50;;;;;;5027926;28;20217;-65
2023/07/07 01:04:41;;;;;;;2.60;1.80;;;17.00;97.10;;;;;;5032445;28;20162;-63
2023/07/07 01:07:15;;;;;;;2.28;1.63;;;16.90;96.60;;;;;;5034662;28;20214;-63
2023/07/07 01:09:43;;;;;;;2.47;1.73;;;16.90;97.40;;;;;;5027594;28;20253;-63
2023/07/07 01:12:11;;;;;;;4.35;1.80;;;16.90;97.30;;;;;;5015074;28;20209;-63
2023/07/07 01:14:39;;;;;;;2.50;1.83;;;16.80;97.30;;;;;;5025034;28;20175;-65
2023/07/07 01:17:28;;;;;;;2.20;1.50;;;16.80;97.30;;;;;;5039199;28;20232;-63
2023/07/07 01:20:21;;;;;;;2.72;1.75;;;16.80;98.70;;;;;;5034485;28;20201;-65
2023/07/07 01:23:05;;;;;;;2.60;1.60;;;16.70;99.10;;;;;;5014611;28;20178;-63
2023/07/07 01:26:03;;;;;;;2.30;1.70;;;16.70;97.90;;;;;;5034362;28;20301;-63
2023/07/07 01:28:34;;;;;;;2.65;1.75;;;16.70;99.90;;;;;;4963930;28;20195;-64
2023/07/07 01:31:05;;;;;;;1.55;1.30;;;16.70;98.90;;;;;;5027489;28;20177;-63
2023/07/07 01:33:32;;;;;;;2.78;1.63;;;16.70;99.40;;;;;;5034551;28;20162;-63
2023/07/07 01:35:59;;;;;;;2.20;1.30;;;16.70;99.10;;;;;;5033544;28;20201;-63
2023/07/07 01:38:36;;;;;;;2.13;1.63;;;16.70;99.10;;;;;;5039995;28;20174;-62
2023/07/07 01:41:19;;;;;;;1.85;1.50;;;16.70;99.90;;;;;;5033955;28;20267;-63
2023/07/07 01:44:08;;;;;;;3.00;1.60;;;16.70;99.90;;;;;;5033661;28;20186;-63
2023/07/07 01:46:46;;;;;;;2.67;1.60;;;16.70;99.90;;;;;;5031594;28;20191;-62
2023/07/07 01:49:26;;;;;;;1.85;1.20;;;16.60;99.90;;;;;;5035195;28;20205;-63
2023/07/07 01:52:04;;;;;;;2.75;1.48;;;16.60;99.90;;;;;;5034612;28;20198;-63
2023/07/07 01:54:33;;;;;;;1.60;1.30;;;16.60;99.90;;;;;;5023915;28;20185;-63
2023/07/07 01:57:02;;;;;;;1.77;1.50;;;16.50;99.90;;;;;;5033853;28;20208;-63
2023/07/07 01:59:32;;;;;;;2.38;1.48;;;16.50;99.90;;;;;;5034122;28;20228;-63
2023/07/07 02:01:58;;;;;;;2.83;1.40;;;16.50;99.90;;;;;;5022884;28;20206;-63
2023/07/07 02:04:24;;;;;;;2.05;1.58;;;16.50;99.90;;;;;;5032045;28;20216;-63
2023/07/07 02:06:49;;;;;;;2.05;1.38;;;16.40;99.90;;;;;;5038905;28;20197;-63
2023/07/07 02:09:17;;;;;;;2.17;1.52;;;16.40;99.90;;;;;;5030607;28;20214;-63
2023/07/07 02:11:45;;;;;;;3.50;1.88;;;16.40;99.90;;;;;;5046444;28;20202;-63
2023/07/07 02:14:11;;;;;;;2.40;1.55;;;16.30;99.90;;;;;;5033120;28;20174;-62
2023/07/07 02:16:38;;;;;;;2.88;1.60;;;16.30;99.90;;;;;;5038813;28;20178;-63
2023/07/07 02:19:04;;;;;;;2.30;1.65;;;16.20;99.90;;;;;;5033239;28;20185;-63
2023/07/07 02:21:30;;;;;;;1.98;1.55;;;16.20;99.90;;;;;;5022279;28;20244;-63
2023/07/07 02:23:55;;;;;;;2.10;1.52;;;16.20;99.90;;;;;;5045965;28;20212;-63
2023/07/07 02:26:21;;;;;;;2.28;1.40;;;16.10;99.90;;;;;;5037412;28;20165;-63
2023/07/07 02:28:47;;;;;;;2.80;1.30;;;16.10;99.90;;;;;;5036871;28;20201;-63
2023/07/07 02:31:15;;;;;;;3.55;1.85;;;16.10;99.90;;;;;;5037346;28;20240;-63
2023/07/07 02:33:43;;;;;;;1.98;1.52;;;16.00;99.90;;;;;;5050901;28;20252;-63
2023/07/07 02:36:11;;;;;;;2.10;1.42;;;16.00;99.90;;;;;;5047026;28;20261;-63
2023/07/07 02:38:37;;;;;;;2.15;1.58;;;16.00;99.90;;;;;;5046778;28;20272;-62
2023/07/07 02:41:03;;;;;;;3.35;1.70;;;16.00;99.90;;;;;;5046099;28;20185;-63
2023/07/07 02:43:29;;;;;;;2.53;1.48;;;16.00;99.90;;;;;;5033149;28;20174;-64
2023/07/07 02:45:56;;;;;;;2.40;1.73;;;16.00;99.90;;;;;;5033477;28;20189;-65
2023/07/07 02:48:26;;;;;;;2.08;1.50;;;16.00;99.90;;;;;;5053770;28;20162;-65
2023/07/07 02:50:59;;;;;;;2.47;1.52;;;15.90;99.90;;;;;;5041978;28;20186;-63
2023/07/07 02:53:28;;;;;;;2.08;1.42;;;15.90;99.90;;;;;;5037134;28;20166;-63
2023/07/07 02:55:55;;;;;;;3.00;1.70;;;15.90;99.90;;;;;;5033437;28;20202;-63
2023/07/07 02:58:22;;;;;;;3.70;1.80;;;15.90;99.90;;;;;;5031214;28;20197;-63
2023/07/07 03:00:48;;;;;;;2.00;1.48;;;15.90;99.90;;;;;;5036621;28;20244;-63
2023/07/07 03:03:14;;;;;;;2.05;1.55;;;15.90;99.90;;;;;;5036383;28;20201;-63
2023/07/07 03:05:40;;;;;;;2.72;1.50;;;15.90;99.90;;;;;;5036905;28;20208;-63
2023/07/07 03:08:06;;;;;;;2.20;1.45;;;15.90;99.90;;;;;;5044983;28;20185;-62
2023/07/07 03:10:34;;;;;;;1.52;1.40;;;15.90;99.90;;;;;;5036841;28;20214;-63
2023/07/07 03:13:02;;;;;;;1.80;1.50;;;15.80;99.90;;;;;;5035973;28;20189;-62
2023/07/07 03:15:39;;;;;;;2.25;1.60;;;15.80;99.90;;;;;;5036612;28;20220;-63
2023/07/07 03:18:09;;;;;;;1.88;1.48;;;15.80;99.90;;;;;;5053023;28;20174;-63
2023/07/07 03:20:36;;;;;;;2.10;1.30;;;15.80;99.90;;;;;;5032701;28;20186;-63
2023/07/07 03:23:03;;;;;;;1.83;1.40;;;15.80;99.90;;;;;;5028810;28;20182;-63
2023/07/07 03:25:29;;;;;;;3.05;2.28;;;15.80;99.90;;;;;;5053215;28;20170;-62
2023/07/07 03:27:55;;;;;;;2.42;2.00;;;15.80;99.90;;;;;;5033202;28;20182;-63
2023/07/07 03:30:25;;;;;;;4.40;2.72;;;15.80;99.90;;;;;;5033840;28;20292;-62
2023/07/07 03:32:53;;;;;;;3.90;2.50;;;15.80;99.90;;;;;;5032496;28;20306;-63
2023/07/07 03:35:21;;;;;;;3.55;2.78;;;15.80;99.90;;;;;;5035986;28;20186;-63
2023/07/07 03:37:47;;;;;;;3.20;2.60;;;15.80;99.90;;;;;;5036688;28;20222;-63
2023/07/07 03:40:13;;;;;;;8.60;6.90;;;15.80;99.90;;;;;;5043608;28;20185;-63
2023/07/07 03:42:44;;;;;;;6.50;5.10;;;15.80;99.90;;;;;;5044587;28;20823;-63
2023/07/07 03:45:12;;;;;;;5.07;4.22;;;15.80;99.90;;;;;;5045988;28;20197;-63
2023/07/07 03:47:40;;;;;;;4.57;3.15;;;15.80;99.90;;;;;;5036457;28;20212;-62
2023/07/07 03:50:09;;;;;;;5.35;2.78;;;15.80;99.90;;;;;;5035275;28;20217;-63
2023/07/07 03:52:35;;;;;;;3.85;2.40;;;15.70;99.90;;;;;;5043342;28;20174;-63
2023/07/07 03:55:01;;;;;;;3.72;2.40;;;15.80;99.90;;;;;;5035330;28;20188;-63
2023/07/07 03:57:27;;;;;;;3.92;3.05;;;15.80;99.90;;;;;;5035221;28;20194;-63
2023/07/07 03:59:52;;;;;;;3.92;3.05;;;15.80;99.90;;;;;;5032282;28;20221;-63
2023/07/07 04:02:18;;;;;;;3.72;2.55;;;15.80;99.90;;;;;;5041973;28;20202;-63
2023/07/07 04:04:44;;;;;;;2.90;2.22;;;15.80;99.90;;;;;;5035661;28;20205;-63
2023/07/07 04:07:12;;;;;;;3.10;2.20;;;15.80;99.90;;;;;;5035767;28;20177;-63
2023/07/07 04:09:40;;;;;;;3.50;2.20;;;15.80;99.90;;;;;;5025470;28;20209;-62
2023/07/07 04:12:09;;;;;;;2.63;2.08;;;15.80;99.90;;;;;;5034991;28;20257;-62
2023/07/07 04:14:37;;;;;;;3.35;2.30;;;15.80;99.90;;;;;;5034784;28;20205;-63
2023/07/07 04:17:03;;;;;;;2.58;1.90;;;15.70;99.90;;;;;;5034957;28;20189;-63
2023/07/07 04:19:34;;;;;;;1.73;1.48;;;15.70;99.90;;;;;;5040324;28;20170;-62
2023/07/07 04:21:59;;;;;;;2.22;1.60;;;15.70;99.90;;;;;;5027715;28;20202;-63
2023/07/07 04:24:26;;;;;;;4.35;3.15;;;15.80;99.90;;;;;;5033794;28;20215;-62
2023/07/07 04:26:54;;;;;;;7.53;4.72;;;15.80;99.90;;;;;;5051696;28;20186;-63
2023/07/07 04:29:22;;;;;;;3.67;3.20;;;15.80;99.90;;;;;;5034564;28;20273;-63
2023/07/07 04:31:48;;;;;;;3.63;2.88;;;15.80;99.90;;;;;;5019781;28;20179;-63
2023/07/07 04:34:15;;;;;;;4.97;3.13;;;15.80;99.90;;;;;;5045718;28;20170;-63
2023/07/07 04:36:44;;;;;;;2.50;2.05;;;15.90;99.90;;;;;;5030956;28;20194;-62
2023/07/07 04:39:09;;;;;;;2.83;1.95;;;15.90;99.90;;;;;;5021667;28;20186;-63
2023/07/07 04:41:37;;;;;;;3.63;1.85;;;15.90;99.90;;;;;;5045350;28;20292;-62
2023/07/07 04:44:03;;;;;;;3.80;2.00;;;15.90;99.90;;;;;;5033904;28;20178;-63
2023/07/07 04:46:30;;;;;;;2.08;1.70;;;16.00;99.90;;;;;;5036184;28;20201;-65
2023/07/07 04:49:06;;;;;;;3.85;1.73;;;16.00;99.90;;;;;;5050080;28;20237;-65
2023/07/07 04:51:39;;;;;;;2.03;1.40;;;16.00;99.90;;;;;;5024275;28;20189;-63
2023/07/07 04:54:06;;;;;;;2.17;1.67;;;16.00;99.90;;;;;;5038463;28;20173;-63
2023/07/07 04:56:33;;;;;;;2.60;1.80;;;16.00;99.90;;;;;;5032015;28;20202;-63
2023/07/07 04:58:59;;;;;;;2.63;1.67;;;16.10;99.90;;;;;;5042615;28;20174;-63
2023/07/07 05:01:27;;;;;;;3.58;1.60;;;16.10;99.90;;;;;;5035107;28;20181;-62
2023/07/07 05:03:55;;;;;;;2.03;1.50;;;16.10;99.90;;;;;;5020706;28;20202;-63
2023/07/07 05:06:22;;;;;;;2.42;1.77;;;16.10;99.90;;;;;;5015653;28;20197;-67
2023/07/07 05:08:48;;;;;;;2.50;1.80;;;16.20;99.90;;;;;;5020194;28;20193;-67
2023/07/07 05:11:16;;;;;;;2.42;1.63;;;16.20;99.90;;;;;;5051162;28;20170;-67
2023/07/07 05:13:46;;;;;;;3.22;1.85;;;16.30;99.90;;;;;;5046375;28;20248;-67
2023/07/07 05:16:13;;;;;;;2.80;1.60;;;16.30;99.90;;;;;;5037038;28;20177;-67
2023/07/07 05:18:39;;;;;;;2.78;1.85;;;16.40;99.90;;;;;;5029997;28;20206;-66
2023/07/07 05:21:09;;;;;;;2.83;1.65;;;16.40;99.90;;;;;;5014564;28;20175;-67
2023/07/07 05:23:36;;;;;;;2.67;1.63;;;16.50;99.90;;;;;;5029691;28;20208;-67
2023/07/07 05:26:04;;;;;;;2.38;1.70;;;16.50;99.90;;;;;;5034238;28;20272;-67
2023/07/07 05:28:30;;;;;;;2.85;1.95;;;16.60;99.90;;;;;;5034100;28;20178;-67
2023/07/07 05:30:56;;;;;;;2.80;1.98;;;16.60;99.90;;;;;;5032749;28;20190;-67
2023/07/07 05:33:22;;;;;;;2.70;1.75;;;16.60;99.90;;;;;;5050319;28;20184;-67
2023/07/07 05:35:49;;;;;;;2.55;1.77;;;16.60;99.90;;;;;;5029645;28;20174;-67
2023/07/07 05:38:16;;;;;;;2.90;1.65;;;16.70;99.90;;;;;;5023353;28;20178;-64
2023/07/07 05:40:43;;;;;;;2.97;1.98;;;16.80;99.90;;;;;;5030741;28;20210;-67
2023/07/07 05:43:09;;;;;;;2.97;1.95;;;16.80;99.90;;;;;;5043257;28;20289;-67
2023/07/07 05:45:39;;;;;;;2.60;1.80;;;16.90;99.90;;;;;;5030274;28;20270;-65
2023/07/07 05:48:05;;;;;;;2.72;1.90;;;17.00;99.90;;;;;;5025106;28;20188;-66
2023/07/07 05:50:32;;;;;;;3.78;1.75;;;17.00;99.90;;;;;;5030611;28;20217;-67
2023/07/07 05:52:58;;;;;;;2.55;1.60;;;17.00;99.90;;;;;;5030598;28;20186;-68
2023/07/07 05:55:34;;;;;;;1.80;1.50;;;17.00;99.90;;;;;;5051588;28;20304;-67
2023/07/07 05:58:01;;;;;;;2.22;1.67;;;17.10;99.90;;;;;;5020760;28;20170;-67
2023/07/07 06:00:31;;;;;;;1.90;1.48;;;17.20;99.90;;;;;;5033407;28;20174;-66
2023/07/07 06:03:00;;;;;;;3.20;1.80;;;17.20;99.90;;;;;;5033738;28;20178;-67
2023/07/07 06:05:28;;;;;;;2.63;1.90;;;17.30;99.90;;;;;;5037371;28;20185;-66
2023/07/07 06:07:57;;;;;;;2.65;1.80;;;17.40;99.90;;;;;;5037342;28;20186;-64
2023/07/07 06:10:23;;;;;;;2.80;1.80;;;17.40;99.90;;;;;;5033706;28;20198;-68
2023/07/07 06:12:49;;;;;;;3.45;1.83;;;17.50;99.90;;;;;;5037224;28;20213;-67
2023/07/07 06:15:17;;;;;;;4.22;1.65;;;17.50;99.90;;;;;;5038332;28;20227;-66
2023/07/07 06:17:45;;;;;;;2.00;1.65;;;17.60;99.90;;;;;;5039984;28;20194;-68
2023/07/07 06:20:14;;;;;;;2.13;1.80;;;17.70;99.90;;;;;;5036825;28;20499;-67
2023/07/07 06:22:40;;;;;;;2.20;1.75;;;17.70;99.90;;;;;;5044076;28;20202;-68
2023/07/07 06:25:06;;;;;;;2.05;1.50;;;17.80;99.90;;;;;;5036585;28;20181;-68
2023/07/07 06:27:31;;;;;;;2.10;1.80;;;17.80;99.90;;;;;;5052211;28;20267;-67
2023/07/07 06:29:57;;;;;;;2.80;1.70;;;17.90;99.90;;;;;;5032225;28;20244;-67
2023/07/07 06:32:25;;;;;;;2.30;1.60;;;18.00;99.90;;;;;;5018489;28;20166;-67
2023/07/07 06:34:51;;;;;;;2.53;1.50;;;18.00;99.90;;;;;;5023349;28;20224;-68
2023/07/07 06:37:19;;;;;;;3.10;2.08;;;18.10;99.90;;;;;;5018002;28;20202;-67
2023/07/07 06:39:47;;;;;;;1.85;1.33;;;18.10;99.90;;;;;;5049236;28;20198;-68
2023/07/07 06:42:14;;;;;;;2.17;1.52;;;18.20;99.90;;;;;;5027738;28;20194;-68
2023/07/07 06:44:40;;;;;;;2.40;2.00;;;18.30;99.90;;;;;;5036642;28;20201;-69
2023/07/07 06:47:13;;;;;;;2.17;1.40;;;18.40;99.90;;;;;;5039117;28;20188;-68
2023/07/07 06:49:39;;;;;;;2.95;1.73;;;18.40;99.90;;;;;;5235202;23;20213;-68
2023/07/07 06:52:07;;;;;;;2.45;1.52;;;18.50;99.90;;;;;;5039828;28;20181;-67
2023/07/07 06:54:35;;;;;;;3.30;1.70;;;18.60;99.90;;;;;;5037008;28;20190;-69
2023/07/07 06:57:00;;;;;;;2.67;1.70;;;18.70;99.90;;;;;;5040039;28;20235;-68
2023/07/07 06:59:31;;;;;;;3.42;1.50;;;18.70;99.90;;;;;;5039468;28;20181;-68
2023/07/07 07:01:57;;;;;;;2.17;1.45;;;18.80;99.90;;;;;;5040645;28;20180;-68
2023/07/07 07:04:22;;;;;;;2.10;1.60;;;19.00;99.90;;;;;;5036684;28;20178;-66
2023/07/07 07:06:51;;;;;;;2.17;1.60;;;19.00;99.90;;;;;;5036262;28;20193;-68
2023/07/07 07:09:16;;;;;;;4.32;1.70;;;19.10;99.90;;;;;;5043150;28;20203;-68
2023/07/07 07:11:42;;;;;;;2.60;1.63;;;19.20;99.90;;;;;;5056897;28;20276;-68
2023/07/07 07:14:10;;;;;;;2.15;1.50;;;19.30;99.90;;;;;;5053189;28;20266;-68
2023/07/07 07:16:35;;;;;;;4.05;2.10;;;19.40;99.90;;;;;;5039804;28;20197;-68
2023/07/07 07:19:03;;;;;;;1.90;1.50;;;19.50;99.90;;;;;;5040104;28;20320;-68
2023/07/07 07:21:31;;;;;;;2.10;1.30;;;19.60;99.90;;;;;;5039487;28;20231;-68
2023/07/07 07:23:59;;;;;;;1.70;1.30;;;19.70;99.90;;;;;;5036359;28;20373;-66
2023/07/07 07:26:27;;;;;;;2.35;1.50;;;19.70;99.90;;;;;;5036340;28;20262;-68
2023/07/07 07:28:53;;;;;;;2.00;1.45;;;19.80;99.90;;;;;;5047193;28;20178;-68
2023/07/07 07:31:19;;;;;;;3.65;1.60;;;19.90;99.90;;;;;;5039828;28;20176;-68
2023/07/07 07:33:51;;;;;;;1.63;1.05;;;20.00;99.90;;;;;;5035989;28;20197;-68
2023/07/07 07:36:17;;;;;;;1.90;1.40;;;20.10;99.90;;;;;;5021821;28;20170;-68
2023/07/07 07:38:42;;;;;;;2.50;1.42;;;20.20;99.90;;;;;;5038771;28;20316;-68
2023/07/07 07:41:08;;;;;;;1.40;1.25;;;20.30;99.90;;;;;;5056517;28;20165;-68
2023/07/07 07:43:34;;;;;;;1.65;1.50;;;20.50;99.90;;;;;;5039067;28;20170;-67
2023/07/07 07:46:02;;;;;;;1.42;1.23;;;20.60;99.90;;;;;;5039195;28;20174;-68
2023/07/07 07:48:27;;;;;;;3.15;1.50;;;20.60;99.90;;;;;;5038595;28;20200;-67
2023/07/07 07:50:53;;;;;;;1.40;1.30;;;20.80;99.90;;;;;;5052001;28;20198;-68
2023/07/07 07:53:19;;;;;;;2.10;1.25;;;20.90;99.90;;;;;;5038581;28;20189;-67
2023/07/07 07:55:47;;;;;;;2.00;1.30;;;21.00;99.90;;;;;;5035241;28;20200;-69
2023/07/07 07:58:12;;;;;;;2.13;1.30;;;21.10;99.90;;;;;;5025202;28;20430;-68
2023/07/07 08:00:40;;;;;;;1.88;1.40;;;21.20;99.90;;;;;;5038487;28;20184;-66
2023/07/07 08:03:08;;;;;;;1.85;1.50;;;21.40;99.90;;;;;;5047530;28;20174;-68
2023/07/07 08:05:36;;;;;;;2.45;1.40;;;21.50;99.90;;;;;;5034286;28;20174;-68
2023/07/07 08:08:01;;;;;;;1.60;1.27;;;21.60;99.90;;;;;;5038451;28;20178;-68
2023/07/07 08:10:29;;;;;;;2.30;1.50;;;21.70;99.90;;;;;;5051571;28;20256;-69
2023/07/07 08:12:55;;;;;;;2.03;1.20;;;21.80;99.90;;;;;;5031963;28;20185;-68
2023/07/07 08:15:20;;;;;;;1.40;1.20;;;21.90;99.90;;;;;;5038605;28;20197;-67
2023/07/07 08:17:46;;;;;;;2.85;1.45;;;22.00;99.90;;;;;;5038190;28;20170;-67
2023/07/07 08:20:19;;;;;;;4.68;1.50;;;22.10;99.90;;;;;;5037955;28;20267;-68
2023/07/07 08:22:47;;;;;;;2.08;1.27;;;22.20;99.90;;;;;;5030965;28;20193;-68
2023/07/07 08:25:13;;;;;;;2.05;1.45;;;22.40;99.90;;;;;;5035105;28;20267;-68
2023/07/07 08:27:39;;;;;;;1.88;1.40;;;22.40;99.90;;;;;;5052570;28;20188;-68
2023/07/07 08:30:05;;;;;;;1.95;1.35;;;22.60;99.90;;;;;;5035003;28;20210;-68
2023/07/07 08:32:35;;;;;;;2.03;1.33;;;22.70;99.90;;;;;;5028390;28;20206;-68
2023/07/07 08:35:03;;;;;;;2.30;1.20;;;22.80;99.90;;;;;;5055218;28;20173;-67
2023/07/07 08:37:29;;;;;;;1.95;1.23;;;22.90;99.90;;;;;;5037737;28;20169;-69
2023/07/07 08:39:55;;;;;;;2.58;1.42;;;23.00;99.90;;;;;;5038155;28;20174;-68
2023/07/07 08:42:35;;;;;;;1.67;1.23;;;23.10;99.90;;;;;;5028091;28;20178;-68
2023/07/07 08:45:18;;;;;;;2.10;1.50;;;23.30;99.90;;;;;;5046909;28;20181;-69
2023/07/07 08:48:01;;;;;;;1.98;1.52;;;23.40;99.90;;;;;;5055051;28;20165;-68
2023/07/07 08:50:35;;;;;;;1.77;1.30;;;23.50;99.90;;;;;;5037413;28;20254;-65
2023/07/07 08:53:22;;;;;;;2.08;1.20;;;23.70;99.80;;;;;;5053990;28;20173;-66
2023/07/07 08:55:59;;;;;;;1.58;1.23;;;23.70;99.80;;;;;;5037975;28;20173;-68
2023/07/07 08:58:28;;;;;;;2.65;1.60;;;23.90;99.90;;;;;;5033894;28;20409;-66
2023/07/07 09:01:07;;;;;;;3.75;1.38;;;24.00;99.30;;;;;;5035820;28;20301;-69
2023/07/07 09:03:57;;;;;;;1.88;1.35;;;24.10;97.80;;;;;;5037705;28;20205;-68
2023/07/07 09:06:58;;;;;;;3.05;1.40;;;24.20;97.20;;;;;;5037232;28;20173;-68
2023/07/07 09:09:35;;;;;;;4.05;1.50;;;24.40;96.50;;;;;;5017865;28;20265;-68
2023/07/07 09:12:27;;;;;;;2.63;1.38;;;24.50;97.20;;;;;;5030100;28;20192;-68
2023/07/07 09:15:00;;;;;;;2.90;1.52;;;24.60;97.10;;;;;;5034366;28;20181;-68
2023/07/07 09:17:33;;;;;;;3.15;1.50;;;24.70;96.70;;;;;;5037699;28;20169;-60
2023/07/07 09:20:02;;;;;;;2.00;1.50;;;24.90;95.70;;;;;;5037355;28;20425;-68
2023/07/07 09:22:42;;;;;;;1.70;1.38;;;24.90;96.30;;;;;;5037867;28;20173;-67
2023/07/07 09:25:42;;;;;;;2.78;1.30;;;25.10;94.40;;;;;;5037259;28;20224;-68
2023/07/07 09:28:14;;;;;;;1.88;1.15;;;25.20;92.80;;;;;;5036293;28;20200;-67
2023/07/07 09:31:05;;;;;;;2.33;1.50;;;25.30;92.50;;;;;;5037059;28;20228;-68
2023/07/07 09:33:32;;;;;;;1.98;1.40;;;25.40;92.50;;;;;;5036771;28;20173;-68
2023/07/07 09:36:30;;;;;;;2.30;1.70;;;25.50;92.80;;;;;;5053712;28;20177;-68
2023/07/07 09:39:24;;;;;;;2.83;1.75;;;25.60;86.40;;;;;;5030030;28;20235;-68
2023/07/07 09:42:14;;;;;;;1.58;1.30;;;25.70;90.20;;;;;;5052226;28;20193;-67
2023/07/07 09:44:58;;;;;;;1.98;1.58;;;25.80;90.50;;;;;;5036793;28;20204;-68
2023/07/07 09:47:45;;;;;;;2.83;1.50;;;25.90;85.30;;;;;;5053890;28;20176;-67
2023/07/07 09:50:25;;;;;;;2.03;1.60;;;26.00;86.70;;;;;;5049985;28;20400;-69
2023/07/07 09:52:56;;;;;;;2.40;1.77;;;26.10;84.90;;;;;;5033870;28;20257;-69
2023/07/07 09:55:26;;;;;;;1.98;1.60;;;26.20;87.70;;;;;;5036882;28;20197;-69
2023/07/07 09:58:14;;;;;;;2.10;1.60;;;26.30;85.70;;;;;;5028315;28;20181;-69
2023/07/07 10:00:44;;;;;;;2.47;1.50;;;26.40;80.30;;;;;;5023181;28;20190;-67
2023/07/07 10:03:30;;;;;;;2.60;1.60;;;26.40;83.60;;;;;;5044763;28;20202;-68
2023/07/07 10:05:59;;;;;;;2.40;1.50;;;26.50;81.30;;;;;;5037162;28;20204;-68
2023/07/07 10:08:27;;;;;;;2.30;1.60;;;26.60;83.70;;;;;;5032608;28;20277;-68
2023/07/07 10:11:17;;;;;;;2.30;1.50;;;26.60;82.30;;;;;;5036636;28;20231;-68
2023/07/07 10:13:55;;;;;;;2.13;1.55;;;26.70;79.80;;;;;;5047497;28;20178;-68
2023/07/07 10:16:49;;;;;;;2.47;1.77;;;26.80;81.50;;;;;;5036644;28;20373;-69
2023/07/07 10:19:16;;;;;;;2.35;1.70;;;26.90;76.70;;;;;;4999890;28;20186;-68
2023/07/07 10:21:43;;;;;;;2.38;1.60;;;27.00;81.30;;;;;;5054290;28;20240;-68
2023/07/07 10:24:13;;;;;;;2.00;1.60;;;27.10;80.20;;;;;;5035858;28;20236;-68
2023/07/07 10:26:47;;;;;;;2.33;1.65;;;27.20;79.00;;;;;;5028747;28;20350;-67
2023/07/07 10:29:21;;;;;;;2.17;1.60;;;27.20;73.40;;;;;;5034493;28;20213;-68
2023/07/07 10:31:50;;;;;;;2.88;1.63;;;27.30;75.50;;;;;;5035833;28;20162;-66
2023/07/07 10:34:31;;;;;;;2.20;1.48;;;27.30;76.00;;;;;;5049622;28;20205;-69
2023/07/07 10:36:58;;;;;;;1.85;1.63;;;27.40;74.50;;;;;;5029779;28;20276;-69
2023/07/07 10:39:29;;;;;;;2.05;1.50;;;27.50;76.60;;;;;;5052655;28;20174;-68
2023/07/07 10:41:57;;;;;;;2.42;1.40;;;27.60;74.80;;;;;;5038834;28;20177;-68
2023/07/07 10:44:27;;;;;;;1.90;1.50;;;27.70;75.30;;;;;;5056159;28;20185;-66
2023/07/07 10:46:53;;;;;;;2.30;1.50;;;27.90;75.40;;;;;;5057074;28;20174;-66
2023/07/07 10:49:24;;;;;;;2.83;1.48;;;28.10;76.30;;;;;;5038950;28;20271;-68
2023/07/07 10:51:59;;;;;;;1.80;1.48;;;28.40;75.50;;;;;;5057531;28;20177;-68
2023/07/07 10:54:31;;;;;;;1.98;1.50;;;28.70;69.90;;;;;;5039803;28;20192;-69
2023/07/07 10:57:11;;;;;;;1.73;1.30;;;28.90;72.90;;;;;;5036286;28;20243;-69
2023/07/07 10:59:46;;;;;;;1.80;1.50;;;29.20;72.80;;;;;;5032038;28;20200;-69
2023/07/07 11:02:32;;;;;;;2.72;2.20;;;29.40;72.10;;;;;;5036307;28;20178;-69
2023/07/07 11:05:32;;;;;;;2.35;1.63;;;29.60;70.20;;;;;;5025926;28;20239;-69
2023/07/07 11:08:16;;;;;;;2.47;1.65;;;29.90;68.30;;;;;;5056846;28;20192;-69
2023/07/07 11:10:51;;;;;;;3.42;1.58;;;30.10;66.70;;;;;;5039599;28;20223;-69
2023/07/07 11:13:44;;;;;;;2.45;1.70;;;30.20;70.50;;;;;;5039899;28;20388;-69
2023/07/07 11:16:28;;;;;;;2.40;1.48;;;30.40;64.30;;;;;;5039643;28;20311;-67
2023/07/07 11:19:17;;;;;;;2.55;1.60;;;30.50;62.40;;;;;;5039726;28;20255;-69
2023/07/07 11:22:11;;;;;;;2.20;1.40;;;30.60;61.80;;;;;;5056748;28;20251;-69
2023/07/07 11:24:46;;;;;;;2.20;1.65;;;30.60;61.60;;;;;;5039991;28;20226;-69
2023/07/07 11:27:34;;;;;;;1.45;1.27;;;30.70;61.00;;;;;;5038843;28;20164;-69
2023/07/07 11:30:19;;;;;;;2.15;1.30;;;30.80;61.70;;;;;;5039423;28;20197;-70
2023/07/07 11:33:29;;;;;;;2.75;1.67;;;30.90;59.20;;;;;;5040812;28;20183;-69
2023/07/07 11:36:10;;;;;;;1.60;1.20;;;31.10;53.90;;;;;;4993042;28;20208;-67
2023/07/07 11:38:57;;;;;;;1.73;1.33;;;31.20;59.40;;;;;;5038984;28;20187;-70
2023/07/07 11:41:49;;;;;;;1.70;1.20;;;31.30;58.20;;;;;;5035502;28;20204;-69
2023/07/07 11:44:35;;;;;;;2.85;1.10;;;31.50;57.30;;;;;;5038852;28;20242;-66
2023/07/07 11:47:19;;;;;;;1.98;1.40;;;31.80;59.00;;;;;;5038896;28;20365;-69
2023/07/07 11:50:06;;;;;;;1.45;1.33;;;32.00;59.70;;;;;;5038160;28;20302;-68
2023/07/07 11:52:40;;;;;;;2.58;1.30;;;32.10;57.80;;;;;;5037891;28;20247;-69
2023/07/07 11:55:15;;;;;;;2.72;1.33;;;32.30;55.90;;;;;;5042491;28;20190;-69
2023/07/07 11:57:58;;;;;;;2.35;1.80;;;32.50;53.60;;;;;;5035399;28;20283;-69
2023/07/07 12:00:36;;;;;;;1.65;1.38;;;32.60;54.50;;;;;;5028974;28;20165;-69
2023/07/07 12:03:33;;;;;;;2.17;1.58;;;32.70;53.50;;;;;;5037813;28;20254;-69
2023/07/07 12:06:04;;;;;;;1.55;1.30;;;32.70;50.60;;;;;;5038607;28;20302;-69
2023/07/07 12:08:38;;;;;;;1.88;1.40;;;32.60;52.70;;;;;;5035350;28;20259;-67
2023/07/07 12:11:13;;;;;;;1.48;1.23;;;32.70;52.10;;;;;;5027933;28;20208;-68
2023/07/07 12:13:57;;;;;;;2.00;1.40;;;32.70;51.60;;;;;;5021251;28;20197;-69
2023/07/07 12:16:24;;;;;;;2.67;1.65;;;32.80;52.40;;;;;;5036382;28;20154;-69
2023/07/07 12:18:56;;;;;;;1.63;1.13;;;32.90;51.20;;;;;;5055393;28;20197;-69
2023/07/07 12:21:34;;;;;;;1.55;1.38;;;33.00;50.70;;;;;;5054773;28;20184;-69
2023/07/07 12:24:04;;;;;;;2.08;1.60;;;33.00;48.30;;;;;;5038518;28;20326;-69
2023/07/07 12:26:37;;;;;;;1.73;1.60;;;33.10;50.40;;;;;;5032977;28;20317;-65
2023/07/07 12:29:05;;;;;;;1.80;1.52;;;33.20;49.30;;;;;;5039686;28;20263;-70
2023/07/07 12:31:35;;;;;;;1.70;1.40;;;33.20;50.20;;;;;;5037509;28;20165;-69
2023/07/07 12:34:38;;;;;;;1.58;1.30;;;33.30;50.10;;;;;;5038098;28;20179;-69
2023/07/07 12:37:17;;;;;;;1.88;1.40;;;33.40;47.90;;;;;;5017827;28;20196;-70
2023/07/07 12:40:09;;;;;;;2.08;1.40;;;33.40;47.80;;;;;;5025283;28;20173;-69
2023/07/07 12:42:36;;;;;;;3.10;1.33;;;33.40;46.60;;;;;;5030529;28;20248;-69
2023/07/07 12:45:25;;;;;;;3.30;1.60;;;33.40;48.00;;;;;;5021345;28;20268;-69
2023/07/07 12:48:01;;;;;;;2.00;1.42;;;33.40;46.10;;;;;;5043113;28;20173;-69
2023/07/07 12:50:32;;;;;;;2.95;2.00;;;33.40;45.70;;;;;;5037205;28;20254;-70
2023/07/07 12:53:05;;;;;;;4.05;2.20;;;33.40;45.70;;;;;;5037883;28;20189;-69
2023/07/07 12:55:38;;;;;;;2.05;1.77;;;33.30;44.60;;;;;;5037644;28;20175;-69
2023/07/07 12:58:06;;;;;;;2.15;1.70;;;33.30;45.40;;;;;;5053969;28;20356;-69
2023/07/07 13:00:34;;;;;;;3.30;2.30;;;33.30;44.40;;;;;;5037388;28;20177;-69
2023/07/07 13:03:08;;;;;;;2.00;1.80;;;33.30;43.80;;;;;;5052644;28;20177;-69
2023/07/07 13:05:34;;;;;;;2.72;2.25;;;33.40;43.20;;;;;;5037549;28;20179;-70
2023/07/07 13:08:03;;;;;;;2.88;2.25;;;33.40;43.20;;;;;;5035802;28;20197;-69
2023/07/07 13:10:48;;;;;;;2.50;2.13;;;33.30;42.80;;;;;;5031749;28;20208;-68
2023/07/07 13:13:30;;;;;;;2.28;2.00;;;33.30;42.30;;;;;;5034340;28;20193;-68